sensor_id;sensor_type;location;lat;lon;timestamp;pressure;altitude;pressure_sealevel;temperature;humidity
26043;BME280;13818;52.156;5.382;2023-04-01T00:01:14;98782.19;;;10.87;100.00
26043;BME280;13818;52.156;5.382;2023-04-01T00:03:41;98779.63;;;10.85;100.00
26043;BME280;13818;52.156;5.382;2023-04-01T00:06:09;98789.09;;;10.89;100.00
26043;BME280;13818;52.156;5.382;2023-04-01T00:08:37;98782.28;;;10.85;100.00
26043;BME280;13818;52.156;5.382;2023-04-01T00:11:04;98782.81;;;10.79;100.00
26043;BME280;13818;52.156;5.382;2023-04-01T00:13:30;98800.84;;;10.76;100.00
26043;BME280;13818;52.156;5.382;2023-04-01T00:15:58;98790.41;;;10.72;100.00
26043;BME280;13818;52.156;5.382;2023-04-01T00:18:27;98802.16;;;10.81;100.00
26043;BME280;13818;52.156;5.382;2023-04-01T00:20:53;98793.22;;;10.82;100.00
26043;BME280;13818;52.156;5.382;2023-04-01T00:23:20;98800.47;;;10.80;100.00
26043;BME280;13818;52.156;5.382;2023-04-01T00:25:48;98793.09;;;10.72;100.00
26043;BME280;13818;52.156;5.382;2023-04-01T00:28:16;98806.41;;;10.61;100.00
26043;BME280;13818;52.156;5.382;2023-04-01T00:30:44;98801.09;;;10.61;100.00
26043;BME280;13818;52.156;5.382;2023-04-01T00:33:12;98794.91;;;10.61;100.00
26043;BME280;13818;52.156;5.382;2023-04-01T00:35:39;98799.84;;;10.65;100.00
26043;BME280;13818;52.156;5.382;2023-04-01T00:38:07;98796.38;;;10.65;100.00
26043;BME280;13818;52.156;5.382;2023-04-01T00:40:36;98795.16;;;10.69;100.00
26043;BME280;13818;52.156;5.382;2023-04-01T00:43:03;98797.81;;;10.69;100.00
26043;BME280;13818;52.156;5.382;2023-04-01T00:45:33;98798.91;;;10.66;100.00
26043;BME280;13818;52.156;5.382;2023-04-01T00:48:03;98806.88;;;10.66;100.00
26043;BME280;13818;52.156;5.382;2023-04-01T00:50:33;98802.66;;;10.64;100.00
26043;BME280;13818;52.156;5.382;2023-04-01T00:53:00;98805.78;;;10.69;100.00
26043;BME280;13818;52.156;5.382;2023-04-01T00:55:29;98811.38;;;10.66;100.00
26043;BME280;13818;52.156;5.382;2023-04-01T00:57:58;98806.66;;;10.58;100.00
26043;BME280;13818;52.156;5.382;2023-04-01T01:00:26;98815.00;;;10.65;100.00
26043;BME280;13818;52.156;5.382;2023-04-01T01:02:52;98815.13;;;10.63;100.00
26043;BME280;13818;52.156;5.382;2023-04-01T01:05:25;98824.09;;;10.62;100.00
26043;BME280;13818;52.156;5.382;2023-04-01T01:08:01;98820.69;;;10.60;100.00
26043;BME280;13818;52.156;5.382;2023-04-01T01:10:31;98820.09;;;10.56;100.00
26043;BME280;13818;52.156;5.382;2023-04-01T01:13:04;98817.19;;;10.48;100.00
26043;BME280;13818;52.156;5.382;2023-04-01T01:15:38;98817.91;;;10.39;100.00
26043;BME280;13818;52.156;5.382;2023-04-01T01:18:11;98823.59;;;10.46;100.00
26043;BME280;13818;52.156;5.382;2023-04-01T01:21:12;98828.59;;;10.50;100.00
26043;BME280;13818;52.156;5.382;2023-04-01T01:24:17;98830.38;;;10.50;100.00
26043;BME280;13818;52.156;5.382;2023-04-01T01:26:53;98825.41;;;10.45;100.00
26043;BME280;13818;52.156;5.382;2023-04-01T01:29:48;98820.44;;;10.40;100.00
26043;BME280;13818;52.156;5.382;2023-04-01T01:32:36;98819.97;;;10.47;100.00
26043;BME280;13818;52.156;5.382;2023-04-01T01:35:17;98825.66;;;10.53;100.00
26043;BME280;13818;52.156;5.382;2023-04-01T01:37:46;98827.09;;;10.46;100.00
26043;BME280;13818;52.156;5.382;2023-04-01T01:40:17;98820.66;;;10.37;100.00
26043;BME280;13818;52.156;5.382;2023-04-01T01:42:47;98830.69;;;10.34;100.00
26043;BME280;13818;52.156;5.382;2023-04-01T01:45:16;98828.72;;;10.24;100.00
26043;BME280;13818;52.156;5.382;2023-04-01T01:47:45;98834.13;;;10.36;100.00
26043;BME280;13818;52.156;5.382;2023-04-01T01:50:15;98819.78;;;10.25;100.00
26043;BME280;13818;52.156;5.382;2023-04-01T01:52:43;98829.19;;;10.18;100.00
26043;BME280;13818;52.156;5.382;2023-04-01T01:55:26;98835.16;;;10.33;100.00
26043;BME280;13818;52.156;5.382;2023-04-01T01:57:55;98827.91;;;10.24;100.00
26043;BME280;13818;52.156;5.382;2023-04-01T02:00:22;98833.44;;;10.21;100.00
26043;BME280;13818;52.156;5.382;2023-04-01T02:02:49;98832.25;;;10.25;100.00
26043;BME280;13818;52.156;5.382;2023-04-01T02:05:20;98832.38;;;10.35;100.00
26043;BME280;13818;52.156;5.382;2023-04-01T02:07:49;98838.78;;;10.32;100.00
26043;BME280;13818;52.156;5.382;2023-04-01T02:10:21;98837.69;;;10.23;100.00
26043;BME280;13818;52.156;5.382;2023-04-01T02:12:50;98843.75;;;10.25;100.00
26043;BME280;13818;52.156;5.382;2023-04-01T02:15:20;98844.38;;;10.29;100.00
26043;BME280;13818;52.156;5.382;2023-04-01T02:17:49;98842.53;;;10.30;100.00
26043;BME280;13818;52.156;5.382;2023-04-01T02:20:21;98840.34;;;10.23;100.00
26043;BME280;13818;52.156;5.382;2023-04-01T02:22:51;98845.44;;;10.26;100.00
26043;BME280;13818;52.156;5.382;2023-04-01T02:25:22;98849.81;;;10.28;100.00
26043;BME280;13818;52.156;5.382;2023-04-01T02:27:50;98845.19;;;10.18;100.00
26043;BME280;13818;52.156;5.382;2023-04-01T02:30:18;98845.06;;;10.20;100.00
26043;BME280;13818;52.156;5.382;2023-04-01T02:32:46;98847.38;;;10.24;100.00
26043;BME280;13818;52.156;5.382;2023-04-01T02:35:16;98854.03;;;10.19;100.00
26043;BME280;13818;52.156;5.382;2023-04-01T02:37:48;98854.63;;;10.22;100.00
26043;BME280;13818;52.156;5.382;2023-04-01T02:40:16;98852.53;;;10.15;100.00
26043;BME280;13818;52.156;5.382;2023-04-01T02:42:43;98859.69;;;10.14;100.00
26043;BME280;13818;52.156;5.382;2023-04-01T02:45:11;98860.78;;;10.12;100.00
26043;BME280;13818;52.156;5.382;2023-04-01T02:47:38;98855.19;;;10.15;100.00
26043;BME280;13818;52.156;5.382;2023-04-01T02:50:05;98859.69;;;10.14;100.00
26043;BME280;13818;52.156;5.382;2023-04-01T02:52:32;98861.00;;;10.08;100.00
26043;BME280;13818;52.156;5.382;2023-04-01T02:55:00;98859.69;;;10.14;100.00
26043;BME280;13818;52.156;5.382;2023-04-01T02:57:27;98865.63;;;10.18;100.00
26043;BME280;13818;52.156;5.382;2023-04-01T02:59:54;98862.03;;;10.30;100.00
26043;BME280;13818;52.156;5.382;2023-04-01T03:02:20;98863.13;;;10.28;100.00
26043;BME280;13818;52.156;5.382;2023-04-01T03:04:47;98869.41;;;10.26;100.00
26043;BME280;13818;52.156;5.382;2023-04-01T03:07:13;98879.31;;;10.24;100.00
26043;BME280;13818;52.156;5.382;2023-04-01T03:09:40;98863.56;;;10.10;100.00
26043;BME280;13818;52.156;5.382;2023-04-01T03:12:08;98869.47;;;10.02;100.00
26043;BME280;13818;52.156;5.382;2023-04-01T03:14:34;98870.50;;;10.00;100.00
26043;BME280;13818;52.156;5.382;2023-04-01T03:17:00;98868.09;;;9.97;100.00
26043;BME280;13818;52.156;5.382;2023-04-01T03:19:27;98877.91;;;9.96;100.00
26043;BME280;13818;52.156;5.382;2023-04-01T03:21:53;98883.94;;;9.98;100.00
26043;BME280;13818;52.156;5.382;2023-04-01T03:24:20;98888.34;;;9.75;100.00
26043;BME280;13818;52.156;5.382;2023-04-01T03:26:46;98885.34;;;9.80;100.00
26043;BME280;13818;52.156;5.382;2023-04-01T03:29:14;98879.34;;;9.65;100.00
26043;BME280;13818;52.156;5.382;2023-04-01T03:31:41;98896.47;;;9.60;100.00
26043;BME280;13818;52.156;5.382;2023-04-01T03:34:08;98898.59;;;9.68;100.00
26043;BME280;13818;52.156;5.382;2023-04-01T03:36:35;98902.47;;;9.75;100.00
26043;BME280;13818;52.156;5.382;2023-04-01T03:39:01;98896.69;;;9.82;100.00
26043;BME280;13818;52.156;5.382;2023-04-01T03:41:28;98911.13;;;9.90;100.00
26043;BME280;13818;52.156;5.382;2023-04-01T03:43:55;98911.25;;;9.89;100.00
26043;BME280;13818;52.156;5.382;2023-04-01T03:46:23;98910.28;;;9.90;100.00
26043;BME280;13818;52.156;5.382;2023-04-01T03:48:50;98915.03;;;9.98;100.00
26043;BME280;13818;52.156;5.382;2023-04-01T03:51:16;98914.91;;;9.99;100.00
26043;BME280;13818;52.156;5.382;2023-04-01T03:53:43;98922.69;;;10.02;100.00
26043;BME280;13818;52.156;5.382;2023-04-01T03:56:09;98917.81;;;9.96;100.00
26043;BME280;13818;52.156;5.382;2023-04-01T03:58:36;98921.44;;;9.95;100.00
26043;BME280;13818;52.156;5.382;2023-04-01T04:01:13;98930.63;;;9.91;100.00
26043;BME280;13818;52.156;5.382;2023-04-01T04:03:41;98931.78;;;9.87;100.00
26043;BME280;13818;52.156;5.382;2023-04-01T04:06:11;98934.13;;;9.91;100.00
26043;BME280;13818;52.156;5.382;2023-04-01T04:08:38;98934.88;;;9.93;100.00
26043;BME280;13818;52.156;5.382;2023-04-01T04:11:04;98934.88;;;9.93;100.00
26043;BME280;13818;52.156;5.382;2023-04-01T04:13:31;98939.38;;;10.04;100.00
26043;BME280;13818;52.156;5.382;2023-04-01T04:15:57;98938.53;;;10.04;100.00
26043;BME280;13818;52.156;5.382;2023-04-01T04:18:24;98941.91;;;10.06;100.00
26043;BME280;13818;52.156;5.382;2023-04-01T04:20:52;98945.31;;;10.08;100.00
26043;BME280;13818;52.156;5.382;2023-04-01T04:23:19;98951.22;;;10.00;100.00
26043;BME280;13818;52.156;5.382;2023-04-01T04:25:53;98955.34;;;10.04;100.00
26043;BME280;13818;52.156;5.382;2023-04-01T04:28:20;98963.97;;;10.08;100.00
26043;BME280;13818;52.156;5.382;2023-04-01T04:30:46;98960.22;;;10.10;100.00
26043;BME280;13818;52.156;5.382;2023-04-01T04:33:13;98965.88;;;10.06;100.00
26043;BME280;13818;52.156;5.382;2023-04-01T04:35:39;98971.75;;;9.98;100.00
26043;BME280;13818;52.156;5.382;2023-04-01T04:38:07;98968.91;;;10.01;100.00
26043;BME280;13818;52.156;5.382;2023-04-01T04:40:35;98977.09;;;9.98;100.00
26043;BME280;13818;52.156;5.382;2023-04-01T04:43:02;98978.91;;;9.98;100.00
26043;BME280;13818;52.156;5.382;2023-04-01T04:45:29;98980.63;;;9.99;100.00
26043;BME280;13818;52.156;5.382;2023-04-01T04:47:55;98985.94;;;9.99;100.00
26043;BME280;13818;52.156;5.382;2023-04-01T04:50:22;98989.25;;;9.89;100.00
26043;BME280;13818;52.156;5.382;2023-04-01T04:52:49;98994.25;;;9.94;100.00
26043;BME280;13818;52.156;5.382;2023-04-01T04:55:17;99005.22;;;9.89;100.00
26043;BME280;13818;52.156;5.382;2023-04-01T04:57:44;99007.81;;;9.78;100.00
26043;BME280;13818;52.156;5.382;2023-04-01T05:00:11;99010.25;;;9.81;100.00
26043;BME280;13818;52.156;5.382;2023-04-01T05:02:37;99017.28;;;9.82;100.00
26043;BME280;13818;52.156;5.382;2023-04-01T05:05:05;99023.69;;;9.80;100.00
26043;BME280;13818;52.156;5.382;2023-04-01T05:07:32;99027.06;;;9.82;100.00
26043;BME280;13818;52.156;5.382;2023-04-01T05:10:00;99026.66;;;9.75;100.00
26043;BME280;13818;52.156;5.382;2023-04-01T05:12:28;99037.31;;;9.75;100.00
26043;BME280;13818;52.156;5.382;2023-04-01T05:14:54;99036.88;;;9.81;100.00
26043;BME280;13818;52.156;5.382;2023-04-01T05:17:21;99041.44;;;9.79;100.00
26043;BME280;13818;52.156;5.382;2023-04-01T05:19:47;99051.75;;;9.84;100.00
26043;BME280;13818;52.156;5.382;2023-04-01T05:22:13;99052.84;;;9.81;100.00
26043;BME280;13818;52.156;5.382;2023-04-01T05:24:40;99061.78;;;9.80;100.00
26043;BME280;13818;52.156;5.382;2023-04-01T05:27:07;99060.81;;;9.81;100.00
26043;BME280;13818;52.156;5.382;2023-04-01T05:29:34;99059.44;;;9.75;100.00
26043;BME280;13818;52.156;5.382;2023-04-01T05:32:01;99066.56;;;9.75;100.00
26043;BME280;13818;52.156;5.382;2023-04-01T05:34:27;99065.50;;;9.77;100.00
26043;BME280;13818;52.156;5.382;2023-04-01T05:36:54;99067.72;;;9.84;100.00
26043;BME280;13818;52.156;5.382;2023-04-01T05:39:20;99074.75;;;9.85;100.00
26043;BME280;13818;52.156;5.382;2023-04-01T05:41:47;99081.22;;;9.81;100.00
26043;BME280;13818;52.156;5.382;2023-04-01T05:44:13;99080.28;;;9.82;100.00
26043;BME280;13818;52.156;5.382;2023-04-01T05:46:41;99089.84;;;9.84;100.00
26043;BME280;13818;52.156;5.382;2023-04-01T05:49:08;99093.91;;;9.90;100.00
26043;BME280;13818;52.156;5.382;2023-04-01T05:51:34;99091.13;;;9.91;100.00
26043;BME280;13818;52.156;5.382;2023-04-01T05:54:00;99096.34;;;9.93;100.00
26043;BME280;13818;52.156;5.382;2023-04-01T05:56:27;99099.22;;;9.90;100.00
26043;BME280;13818;52.156;5.382;2023-04-01T05:58:54;99097.63;;;9.87;100.00
26043;BME280;13818;52.156;5.382;2023-04-01T06:01:21;99101.78;;;9.91;100.00
26043;BME280;13818;52.156;5.382;2023-04-01T06:03:48;99107.28;;;9.88;100.00
26043;BME280;13818;52.156;5.382;2023-04-01T06:06:17;99113.06;;;9.82;100.00
26043;BME280;13818;52.156;5.382;2023-04-01T06:08:46;99112.97;;;9.84;100.00
26043;BME280;13818;52.156;5.382;2023-04-01T06:11:20;99116.25;;;9.87;100.00
26043;BME280;13818;52.156;5.382;2023-04-01T06:14:07;99123.25;;;9.88;100.00
26043;BME280;13818;52.156;5.382;2023-04-01T06:16:49;99123.81;;;9.93;100.00
26043;BME280;13818;52.156;5.382;2023-04-01T06:19:26;99116.66;;;9.94;100.00
26043;BME280;13818;52.156;5.382;2023-04-01T06:22:12;99140.50;;;9.96;100.00
26043;BME280;13818;52.156;5.382;2023-04-01T06:24:57;99141.47;;;9.94;100.00
26043;BME280;13818;52.156;5.382;2023-04-01T06:27:40;99142.22;;;9.97;100.00
26043;BME280;13818;52.156;5.382;2023-04-01T06:30:27;99149.34;;;9.96;100.00
26043;BME280;13818;52.156;5.382;2023-04-01T06:36:00;99153.50;;;10.00;100.00
26043;BME280;13818;52.156;5.382;2023-04-01T06:38:54;99161.47;;;10.00;100.00
26043;BME280;13818;52.156;5.382;2023-04-01T06:41:47;99174.16;;;9.97;100.00
26043;BME280;13818;52.156;5.382;2023-04-01T06:44:22;99177.66;;;9.97;100.00
26043;BME280;13818;52.156;5.382;2023-04-01T06:46:56;99179.34;;;9.98;100.00
26043;BME280;13818;52.156;5.382;2023-04-01T06:49:41;99180.41;;;9.96;100.00
26043;BME280;13818;52.156;5.382;2023-04-01T06:52:17;99190.34;;;9.93;100.00
26043;BME280;13818;52.156;5.382;2023-04-01T06:54:53;99194.28;;;9.88;100.00
26043;BME280;13818;52.156;5.382;2023-04-01T06:57:24;99199.47;;;9.89;100.00
26043;BME280;13818;52.156;5.382;2023-04-01T06:59:55;99203.00;;;9.90;100.00
26043;BME280;13818;52.156;5.382;2023-04-01T07:02:26;99204.72;;;9.91;100.00
26043;BME280;13818;52.156;5.382;2023-04-01T07:04:58;99206.72;;;9.87;100.00
26043;BME280;13818;52.156;5.382;2023-04-01T07:07:33;99207.56;;;9.88;100.00
26043;BME280;13818;52.156;5.382;2023-04-01T07:10:04;99221.22;;;9.96;100.00
26043;BME280;13818;52.156;5.382;2023-04-01T07:12:37;99215.25;;;9.92;100.00
26043;BME280;13818;52.156;5.382;2023-04-01T07:15:14;99217.06;;;10.05;100.00
26043;BME280;13818;52.156;5.382;2023-04-01T07:17:42;99218.66;;;10.07;100.00
26043;BME280;13818;52.156;5.382;2023-04-01T07:20:14;99230.91;;;10.10;100.00
26043;BME280;13818;52.156;5.382;2023-04-01T07:22:47;99236.75;;;10.15;100.00
26043;BME280;13818;52.156;5.382;2023-04-01T07:25:17;99246.97;;;10.21;100.00
26043;BME280;13818;52.156;5.382;2023-04-01T07:27:45;99244.72;;;10.15;100.00
26043;BME280;13818;52.156;5.382;2023-04-01T07:30:14;99250.59;;;10.20;100.00
26043;BME280;13818;52.156;5.382;2023-04-01T07:32:44;99249.41;;;10.12;100.00
26043;BME280;13818;52.156;5.382;2023-04-01T07:35:18;99263.91;;;10.20;100.00
26043;BME280;13818;52.156;5.382;2023-04-01T07:37:58;99261.75;;;10.25;100.00
26043;BME280;13818;52.156;5.382;2023-04-01T07:40:39;99261.00;;;10.23;100.00
26043;BME280;13818;52.156;5.382;2023-04-01T07:43:30;99267.09;;;10.25;100.00
26043;BME280;13818;52.156;5.382;2023-04-01T07:46:03;99270.38;;;10.29;100.00
26043;BME280;13818;52.156;5.382;2023-04-01T07:48:38;99281.75;;;10.31;100.00
26043;BME280;13818;52.156;5.382;2023-04-01T07:51:11;99279.75;;;10.35;100.00
26043;BME280;13818;52.156;5.382;2023-04-01T07:53:46;99280.41;;;10.25;100.00
26043;BME280;13818;52.156;5.382;2023-04-01T07:56:18;99286.91;;;10.34;100.00
26043;BME280;13818;52.156;5.382;2023-04-01T07:58:57;99289.56;;;10.34;100.00
26043;BME280;13818;52.156;5.382;2023-04-01T08:01:30;99296.91;;;10.31;100.00
26043;BME280;13818;52.156;5.382;2023-04-01T08:04:15;99304.66;;;10.34;100.00
26043;BME280;13818;52.156;5.382;2023-04-01T08:06:47;99311.66;;;10.36;100.00
26043;BME280;13818;52.156;5.382;2023-04-01T08:09:25;99308.31;;;10.33;100.00
26043;BME280;13818;52.156;5.382;2023-04-01T08:12:04;99315.78;;;10.40;100.00
26043;BME280;13818;52.156;5.382;2023-04-01T08:14:39;99317.03;;;10.35;100.00
26043;BME280;13818;52.156;5.382;2023-04-01T08:17:15;99317.13;;;10.33;100.00
26043;BME280;13818;52.156;5.382;2023-04-01T08:19:55;99324.09;;;10.36;100.00
26043;BME280;13818;52.156;5.382;2023-04-01T08:22:26;99325.13;;;10.33;100.00
26043;BME280;13818;52.156;5.382;2023-04-01T08:24:56;99337.22;;;10.39;100.00
26043;BME280;13818;52.156;5.382;2023-04-01T08:27:31;99344.72;;;10.32;100.00
26043;BME280;13818;52.156;5.382;2023-04-01T08:30:04;99337.75;;;10.44;100.00
26043;BME280;13818;52.156;5.382;2023-04-01T08:32:34;99353.50;;;10.47;100.00
26043;BME280;13818;52.156;5.382;2023-04-01T08:35:08;99351.72;;;10.48;100.00
26043;BME280;13818;52.156;5.382;2023-04-01T08:37:38;99353.50;;;10.47;100.00
26043;BME280;13818;52.156;5.382;2023-04-01T08:40:22;99361.06;;;10.40;100.00
26043;BME280;13818;52.156;5.382;2023-04-01T08:43:04;99367.03;;;10.44;100.00
26043;BME280;13818;52.156;5.382;2023-04-01T08:45:56;99366.50;;;10.39;100.00
26043;BME280;13818;52.156;5.382;2023-04-01T08:48:57;99376.63;;;10.47;100.00
26043;BME280;13818;52.156;5.382;2023-04-01T08:54:54;99381.00;;;10.48;100.00
26043;BME280;13818;52.156;5.382;2023-04-01T08:57:36;99385.28;;;10.50;100.00
26043;BME280;13818;52.156;5.382;2023-04-01T09:00:15;99396.53;;;10.54;100.00
26043;BME280;13818;52.156;5.382;2023-04-01T09:03:14;99393.88;;;10.54;100.00
26043;BME280;13818;52.156;5.382;2023-04-01T09:06:22;99401.97;;;10.65;100.00
26043;BME280;13818;52.156;5.382;2023-04-01T09:11:57;99408.47;;;10.61;100.00
26043;BME280;13818;52.156;5.382;2023-04-01T09:14:55;99409.97;;;10.65;100.00
26043;BME280;13818;52.156;5.382;2023-04-01T09:17:41;99414.88;;;10.71;100.00
26043;BME280;13818;52.156;5.382;2023-04-01T09:20:33;99409.66;;;10.57;100.00
26043;BME280;13818;52.156;5.382;2023-04-01T09:23:23;99417.66;;;10.70;100.00
26043;BME280;13818;52.156;5.382;2023-04-01T09:26:09;99418.72;;;10.67;100.00
26043;BME280;13818;52.156;5.382;2023-04-01T09:28:45;99422.34;;;10.66;100.00
26043;BME280;13818;52.156;5.382;2023-04-01T09:31:40;99431.84;;;10.70;100.00
26043;BME280;13818;52.156;5.382;2023-04-01T09:34:25;99433.56;;;10.84;100.00
26043;BME280;13818;52.156;5.382;2023-04-01T09:37:09;99442.59;;;10.95;100.00
26043;BME280;13818;52.156;5.382;2023-04-01T09:39:50;99435.44;;;11.08;100.00
26043;BME280;13818;52.156;5.382;2023-04-01T09:42:41;99443.63;;;11.18;100.00
26043;BME280;13818;52.156;5.382;2023-04-01T09:45:17;99447.91;;;11.20;100.00
26043;BME280;13818;52.156;5.382;2023-04-01T09:48:01;99441.72;;;11.20;100.00
26043;BME280;13818;52.156;5.382;2023-04-01T09:50:42;99449.41;;;11.25;100.00
26043;BME280;13818;52.156;5.382;2023-04-01T09:53:27;99454.31;;;11.18;100.00
26043;BME280;13818;52.156;5.382;2023-04-01T09:59:28;99466.09;;;11.52;100.00
26043;BME280;13818;52.156;5.382;2023-04-01T10:02:57;99460.28;;;11.71;100.00
26043;BME280;13818;52.156;5.382;2023-04-01T10:08:56;99468.03;;;11.75;100.00
26043;BME280;13818;52.156;5.382;2023-04-01T10:12:05;99470.72;;;11.75;100.00
26043;BME280;13818;52.156;5.382;2023-04-01T10:14:55;99468.97;;;11.86;100.00
26043;BME280;13818;52.156;5.382;2023-04-01T10:17:57;99477.13;;;12.09;100.00
26043;BME280;13818;52.156;5.382;2023-04-01T10:20:54;99475.13;;;12.00;100.00
26043;BME280;13818;52.156;5.382;2023-04-01T10:26:47;99478.28;;;11.81;100.00
26043;BME280;13818;52.156;5.382;2023-04-01T10:29:36;99489.69;;;11.83;100.00
26043;BME280;13818;52.156;5.382;2023-04-01T10:32:25;99488.38;;;11.88;100.00
26043;BME280;13818;52.156;5.382;2023-04-01T10:35:28;99493.84;;;11.87;100.00
26043;BME280;13818;52.156;5.382;2023-04-01T10:38:20;99492.41;;;11.70;100.00
26043;BME280;13818;52.156;5.382;2023-04-01T10:41:08;99496.03;;;11.69;100.00
26043;BME280;13818;52.156;5.382;2023-04-01T10:50:13;99507.06;;;12.01;100.00
26043;BME280;13818;52.156;5.382;2023-04-01T10:53:07;99504.00;;;12.19;100.00
26043;BME280;13818;52.156;5.382;2023-04-01T10:56:05;99504.03;;;12.30;100.00
26043;BME280;13818;52.156;5.382;2023-04-01T11:02:06;99505.88;;;12.30;100.00
26043;BME280;13818;52.156;5.382;2023-04-01T11:08:10;99517.13;;;11.98;100.00
26043;BME280;13818;52.156;5.382;2023-04-01T11:11:08;99514.88;;;11.92;100.00
26043;BME280;13818;52.156;5.382;2023-04-01T11:14:08;99532.94;;;11.88;100.00
26043;BME280;13818;52.156;5.382;2023-04-01T11:23:15;99537.75;;;11.96;100.00
26043;BME280;13818;52.156;5.382;2023-04-01T11:26:08;99542.75;;;11.87;100.00
26043;BME280;13818;52.156;5.382;2023-04-01T11:28:57;99543.72;;;11.99;100.00
26043;BME280;13818;52.156;5.382;2023-04-01T11:31:35;99554.69;;;12.08;100.00
26043;BME280;13818;52.156;5.382;2023-04-01T11:34:13;99545.38;;;12.13;100.00
26043;BME280;13818;52.156;5.382;2023-04-01T11:36:51;99554.41;;;12.24;100.00
26043;BME280;13818;52.156;5.382;2023-04-01T11:39:30;99560.75;;;12.10;100.00
26043;BME280;13818;52.156;5.382;2023-04-01T11:42:09;99557.41;;;12.19;100.00
26043;BME280;13818;52.156;5.382;2023-04-01T11:44:43;99565.53;;;12.17;100.00
26043;BME280;13818;52.156;5.382;2023-04-01T11:47:28;99577.19;;;12.16;100.00
26043;BME280;13818;52.156;5.382;2023-04-01T11:50:18;99579.53;;;12.21;100.00
26043;BME280;13818;52.156;5.382;2023-04-01T11:53:05;99586.69;;;12.20;100.00
26043;BME280;13818;52.156;5.382;2023-04-01T11:55:47;99592.03;;;12.20;100.00
26043;BME280;13818;52.156;5.382;2023-04-01T11:58:33;99587.31;;;12.24;100.00
26043;BME280;13818;52.156;5.382;2023-04-01T12:01:14;99594.19;;;12.15;100.00
26043;BME280;13818;52.156;5.382;2023-04-01T12:04:13;99602.50;;;12.24;100.00
26043;BME280;13818;52.156;5.382;2023-04-01T12:06:49;99596.63;;;12.18;100.00
26043;BME280;13818;52.156;5.382;2023-04-01T12:09:24;99605.22;;;12.11;100.00
26043;BME280;13818;52.156;5.382;2023-04-01T12:12:08;99604.25;;;12.12;100.00
26043;BME280;13818;52.156;5.382;2023-04-01T12:14:42;99614.25;;;12.21;100.00
26043;BME280;13818;52.156;5.382;2023-04-01T12:17:29;99610.75;;;12.08;100.00
26043;BME280;13818;52.156;5.382;2023-04-01T12:20:01;99617.41;;;12.02;100.00
26043;BME280;13818;52.156;5.382;2023-04-01T12:22:45;99612.91;;;12.02;100.00
26043;BME280;13818;52.156;5.382;2023-04-01T12:28:25;99623.59;;;11.77;100.00
26043;BME280;13818;52.156;5.382;2023-04-01T12:31:03;99639.81;;;11.73;100.00
26043;BME280;13818;52.156;5.382;2023-04-01T12:33:44;99641.41;;;11.76;100.00
26043;BME280;13818;52.156;5.382;2023-04-01T12:36:23;99643.78;;;11.68;100.00
26043;BME280;13818;52.156;5.382;2023-04-01T12:39:17;99649.97;;;11.55;100.00
26043;BME280;13818;52.156;5.382;2023-04-01T12:41:54;99650.81;;;11.56;100.00
26043;BME280;13818;52.156;5.382;2023-04-01T12:44:31;99653.19;;;11.61;100.00
26043;BME280;13818;52.156;5.382;2023-04-01T12:47:13;99651.03;;;11.66;100.00
26043;BME280;13818;52.156;5.382;2023-04-01T12:49:57;99660.56;;;11.83;100.00
26043;BME280;13818;52.156;5.382;2023-04-01T12:52:41;99653.28;;;11.72;100.00
26043;BME280;13818;52.156;5.382;2023-04-01T12:55:37;99650.19;;;11.78;100.00
26043;BME280;13818;52.156;5.382;2023-04-01T12:58:38;99667.69;;;11.82;100.00
26043;BME280;13818;52.156;5.382;2023-04-01T13:01:19;99661.81;;;11.90;100.00
26043;BME280;13818;52.156;5.382;2023-04-01T13:04:11;99660.22;;;11.75;100.00
26043;BME280;13818;52.156;5.382;2023-04-01T13:06:52;99676.34;;;11.60;100.00
26043;BME280;13818;52.156;5.382;2023-04-01T13:09:29;99683.06;;;11.79;100.00
26043;BME280;13818;52.156;5.382;2023-04-01T13:12:20;99681.69;;;11.86;100.00
26043;BME280;13818;52.156;5.382;2023-04-01T13:15:09;99688.72;;;11.87;100.00
26043;BME280;13818;52.156;5.382;2023-04-01T13:17:46;99691.94;;;11.79;100.00
26043;BME280;13818;52.156;5.382;2023-04-01T13:20:16;99696.31;;;11.67;100.00
26043;BME280;13818;52.156;5.382;2023-04-01T13:22:54;99696.53;;;11.51;100.00
26043;BME280;13818;52.156;5.382;2023-04-01T13:25:32;99702.47;;;11.42;100.00
26043;BME280;13818;52.156;5.382;2023-04-01T13:28:09;99703.13;;;11.46;100.00
26043;BME280;13818;52.156;5.382;2023-04-01T13:30:44;99714.03;;;11.55;100.00
26043;BME280;13818;52.156;5.382;2023-04-01T13:33:23;99705.91;;;11.57;100.00
26043;BME280;13818;52.156;5.382;2023-04-01T13:35:59;99717.09;;;11.49;100.00
26043;BME280;13818;52.156;5.382;2023-04-01T13:38:56;99713.34;;;11.39;100.00
26043;BME280;13818;52.156;5.382;2023-04-01T13:41:47;99718.53;;;11.15;100.00
26043;BME280;13818;52.156;5.382;2023-04-01T13:44:22;99726.97;;;11.21;100.00
26043;BME280;13818;52.156;5.382;2023-04-01T13:47:13;99728.38;;;11.27;100.00
26043;BME280;13818;52.156;5.382;2023-04-01T13:49:56;99730.59;;;11.20;100.00
26043;BME280;13818;52.156;5.382;2023-04-01T13:52:54;99729.53;;;11.23;100.00
26043;BME280;13818;52.156;5.382;2023-04-01T13:58:43;99742.59;;;11.40;100.00
26043;BME280;13818;52.156;5.382;2023-04-01T14:01:25;99744.66;;;11.50;100.00
26043;BME280;13818;52.156;5.382;2023-04-01T14:04:33;99753.34;;;11.66;100.00
26043;BME280;13818;52.156;5.382;2023-04-01T14:07:19;99765.94;;;11.77;100.00
26043;BME280;13818;52.156;5.382;2023-04-01T14:10:06;99767.00;;;11.75;100.00
26043;BME280;13818;52.156;5.382;2023-04-01T14:12:39;99775.13;;;11.86;100.00
26043;BME280;13818;52.156;5.382;2023-04-01T14:15:26;99786.22;;;11.80;100.00
26043;BME280;13818;52.156;5.382;2023-04-01T14:18:19;99790.91;;;11.76;100.00
26043;BME280;13818;52.156;5.382;2023-04-01T14:21:07;99784.50;;;11.66;100.00
26043;BME280;13818;52.156;5.382;2023-04-01T14:23:46;99782.59;;;11.68;100.00